Eureka, North Carolina
Current Conditions -  °F | °C
As of 9:30 PM on Sunday 23 Nov 2014 (Local Time) from KGWW Reporting Station
Light Rain Light Rain  
Wind Chill: 64°   Ceiling: 900
Heat Index: 64°   Visibility: 10mi
Dew Point: 63°   Wind: 10mph
Humidity: 97%   Direction: 150°SSE
Pressure: 29.89"   Gusts: 16mph
Location:  35.5277°N, 77.996°W
Report Text: KGWW 240230Z AUTO 15009G14KT 120V180 10SM -RA SCT006 BKN009 OVC020 18/17 A2989 RMK AO2 T01750171
Loading
Personal Weather Stations






























Interactive Weather Map New forecast layout! Learn more

10-Day Weather Forecast

Advertisements
Track Severe Weather on mobile